createdAt,value
2019-02-04T00:01:13.204Z,1.70
2019-02-04T00:03:42.619Z,1.70
2019-02-04T00:06:12.292Z,1.70
2019-02-04T00:08:41.799Z,1.70
2019-02-04T00:11:11.179Z,1.70
2019-02-04T00:13:40.588Z,1.70
2019-02-04T00:16:09.967Z,1.70
2019-02-04T00:18:39.339Z,1.70
2019-02-04T00:21:08.736Z,1.70
2019-02-04T00:23:38.180Z,1.70
2019-02-04T00:26:07.630Z,1.70
2019-02-04T00:28:37.005Z,1.60
2019-02-04T00:31:06.415Z,1.70
2019-02-04T00:33:36.095Z,1.70
2019-02-04T00:36:05.711Z,1.70
2019-02-04T00:38:35.090Z,1.70
2019-02-04T00:41:04.475Z,1.80
2019-02-04T00:43:33.868Z,1.80
2019-02-04T00:46:03.266Z,1.80
2019-02-04T00:48:32.962Z,1.90
2019-02-04T00:51:02.360Z,2.00
2019-02-04T00:53:31.769Z,2.00
2019-02-04T00:56:01.144Z,2.00
2019-02-04T00:58:30.591Z,2.00
2019-02-04T01:00:59.967Z,2.00
2019-02-04T01:03:29.542Z,1.90
2019-02-04T01:05:58.944Z,1.90
2019-02-04T01:08:28.439Z,1.90
2019-02-04T01:10:57.828Z,1.90
2019-02-04T01:13:27.218Z,1.90
2019-02-04T01:15:56.604Z,1.90
2019-02-04T01:18:25.983Z,1.90
2019-02-04T01:20:55.479Z,1.90
2019-02-04T01:23:24.901Z,1.80
2019-02-04T01:25:54.287Z,1.80
2019-02-04T01:28:23.698Z,1.80
2019-02-04T01:30:53.415Z,1.80
2019-02-04T01:33:22.807Z,1.80
2019-02-04T01:35:52.197Z,1.90
2019-02-04T01:38:21.599Z,1.90
2019-02-04T01:40:50.993Z,1.90
2019-02-04T01:43:20.467Z,1.90
2019-02-04T01:45:49.940Z,1.90
2019-02-04T01:48:19.329Z,2.00
2019-02-04T01:50:48.732Z,1.90
2019-02-04T01:53:18.117Z,1.90
2019-02-04T01:55:47.519Z,1.90
2019-02-04T01:58:16.938Z,1.90
2019-02-04T02:00:46.340Z,1.90
2019-02-04T02:03:15.811Z,1.90
2019-02-04T02:05:45.239Z,2.00
2019-02-04T02:08:14.614Z,2.00
2019-02-04T02:10:43.996Z,2.00
2019-02-04T02:13:13.599Z,2.10
2019-02-04T02:15:42.979Z,2.10
2019-02-04T02:18:12.383Z,2.10
2019-02-04T02:20:41.771Z,2.20
2019-02-04T02:23:11.191Z,2.10
2019-02-04T02:25:40.624Z,2.10
2019-02-04T02:28:10.015Z,2.10
2019-02-04T02:30:39.422Z,2.10
2019-02-04T02:33:08.807Z,2.10
2019-02-04T02:35:38.233Z,2.10
2019-02-04T02:38:07.612Z,2.10
2019-02-04T02:40:37.096Z,2.10
2019-02-04T02:43:06.890Z,2.10
2019-02-04T02:45:36.279Z,2.00
2019-02-04T02:48:05.792Z,2.00
2019-02-04T02:50:35.198Z,2.10
2019-02-04T02:53:04.586Z,2.10
2019-02-04T02:55:33.963Z,2.10
2019-02-04T02:58:03.740Z,2.10
2019-02-04T03:00:33.108Z,2.10
2019-02-04T03:03:02.503Z,2.20
2019-02-04T03:05:32.053Z,2.10
2019-02-04T03:08:01.403Z,2.10
2019-02-04T03:10:32.612Z,2.10
2019-02-04T03:13:02.051Z,2.10
2019-02-04T03:15:31.455Z,2.00
2019-02-04T03:18:00.845Z,2.00
2019-02-04T03:20:30.253Z,2.00
2019-02-04T03:22:59.645Z,2.00
2019-02-04T03:25:29.074Z,2.00
2019-02-04T03:27:58.488Z,2.00
2019-02-04T03:30:34.781Z,2.10
2019-02-04T03:33:05.131Z,2.10
2019-02-04T03:35:34.514Z,2.10
2019-02-04T03:38:04.116Z,2.10
2019-02-04T03:40:33.894Z,2.20
2019-02-04T03:43:03.310Z,2.20
2019-02-04T03:45:33.075Z,2.30
2019-02-04T03:48:08.309Z,2.30
2019-02-04T03:50:34.652Z,2.40
2019-02-04T03:53:04.051Z,2.40
2019-02-04T03:55:33.433Z,2.40
2019-02-04T03:58:02.857Z,2.40
2019-02-04T04:00:34.472Z,2.40
2019-02-04T04:03:04.004Z,2.40
2019-02-04T04:05:33.488Z,2.40
2019-02-04T04:08:02.863Z,2.40
2019-02-04T04:10:32.281Z,2.40
2019-02-04T04:13:01.655Z,2.40
2019-02-04T04:15:31.051Z,2.40
2019-02-04T04:18:00.719Z,2.40
2019-02-04T04:20:30.135Z,2.40
2019-02-04T04:22:59.515Z,2.50
2019-02-04T04:25:31.896Z,2.50
2019-02-04T04:28:01.323Z,2.50
2019-02-04T04:30:30.710Z,2.60
2019-02-04T04:33:00.122Z,2.60
2019-02-04T04:35:29.491Z,2.80
2019-02-04T04:37:58.884Z,2.90
2019-02-04T04:40:28.303Z,3.00
2019-02-04T04:42:57.680Z,3.00
2019-02-04T04:45:27.311Z,3.00
2019-02-04T04:47:56.702Z,2.90
2019-02-04T04:50:26.107Z,2.80
2019-02-04T04:52:55.503Z,2.70
2019-02-04T04:55:26.523Z,2.70
2019-02-04T04:57:56.108Z,2.60
2019-02-04T05:00:28.026Z,2.60
2019-02-04T05:02:58.189Z,2.50
2019-02-04T05:05:27.671Z,2.50
2019-02-04T05:07:57.191Z,2.50
2019-02-04T05:10:26.567Z,2.40
2019-02-04T05:12:56.007Z,2.40
2019-02-04T05:15:26.767Z,2.40
2019-02-04T05:17:56.160Z,2.50
2019-02-04T05:20:25.559Z,2.40
2019-02-04T05:22:55.035Z,2.40
2019-02-04T05:25:24.443Z,2.40
2019-02-04T05:27:54.198Z,2.40
2019-02-04T05:30:24.715Z,2.40
2019-02-04T05:32:54.095Z,2.40
2019-02-04T05:35:23.582Z,2.40
2019-02-04T05:37:53.087Z,2.50
2019-02-04T05:40:22.465Z,2.50
2019-02-04T05:42:52.219Z,2.50
2019-02-04T05:45:21.715Z,2.50
2019-02-04T05:47:51.140Z,2.50
2019-02-04T05:50:20.585Z,2.50
2019-02-04T05:52:50.171Z,2.40
2019-02-04T05:55:21.291Z,2.40
2019-02-04T05:57:50.759Z,2.50
2019-02-04T06:00:31.323Z,2.60
2019-02-04T06:03:00.720Z,2.60
2019-02-04T06:05:30.123Z,2.60
2019-02-04T06:07:59.792Z,2.60
2019-02-04T06:10:29.259Z,2.60
2019-02-04T06:12:58.625Z,2.60
2019-02-04T06:15:28.023Z,2.50
2019-02-04T06:17:57.420Z,2.60
2019-02-04T06:20:27.008Z,2.60
2019-02-04T06:22:56.616Z,2.60
2019-02-04T06:25:26.052Z,2.50
2019-02-04T06:27:55.516Z,2.50
2019-02-04T06:30:24.886Z,2.40
2019-02-04T06:32:54.265Z,2.40
2019-02-04T06:35:23.664Z,2.40
2019-02-04T06:37:53.072Z,2.20
2019-02-04T06:40:22.468Z,2.10
2019-02-04T06:42:51.856Z,2.10
2019-02-04T06:45:21.339Z,2.00
2019-02-04T06:47:50.714Z,2.00
2019-02-04T06:50:20.204Z,2.00
2019-02-04T06:52:49.623Z,2.00
2019-02-04T06:55:21.540Z,2.00
2019-02-04T06:57:50.965Z,2.00
2019-02-04T07:00:20.445Z,2.00
2019-02-04T07:02:49.956Z,2.10
2019-02-04T07:05:19.758Z,2.10
2019-02-04T07:07:50.248Z,2.20
2019-02-04T07:10:21.423Z,2.30
2019-02-04T07:12:50.809Z,2.30
2019-02-04T07:15:20.423Z,2.30
2019-02-04T07:17:50.949Z,2.30
2019-02-04T07:20:22.273Z,2.20
2019-02-04T07:22:51.771Z,2.20
2019-02-04T07:25:22.155Z,2.10
2019-02-04T07:27:51.585Z,2.00
2019-02-04T07:30:22.839Z,1.90
2019-02-04T07:32:52.579Z,1.80
2019-02-04T07:35:22.082Z,1.80
2019-02-04T07:37:51.495Z,1.80
2019-02-04T07:40:23.204Z,1.80
2019-02-04T07:42:52.765Z,1.80
2019-02-04T07:45:22.229Z,1.80
2019-02-04T07:47:51.925Z,1.80
2019-02-04T07:50:21.328Z,1.70
2019-02-04T07:52:50.739Z,1.80
2019-02-04T07:55:20.127Z,1.90
2019-02-04T07:57:49.806Z,1.90
2019-02-04T08:00:24.345Z,2.00
2019-02-04T08:02:53.870Z,2.10
2019-02-04T08:05:23.576Z,2.10
2019-02-04T08:07:53.138Z,2.10
2019-02-04T08:10:22.499Z,2.20
2019-02-04T08:13:00.938Z,2.20
2019-02-04T08:15:28.187Z,2.20
2019-02-04T08:17:58.035Z,2.30
2019-02-04T08:20:27.526Z,2.30
2019-02-04T08:22:56.940Z,2.40
2019-02-04T08:25:26.427Z,2.50
2019-02-04T08:27:56.300Z,2.60
2019-02-04T08:30:30.687Z,2.70
2019-02-04T08:33:00.083Z,2.70
2019-02-04T08:35:30.390Z,2.70
2019-02-04T08:37:59.972Z,2.80
2019-02-04T08:40:29.748Z,2.90
2019-02-04T08:42:59.107Z,3.10
2019-02-04T08:45:28.483Z,3.20
2019-02-04T08:47:57.918Z,3.40
2019-02-04T08:50:27.702Z,3.30
2019-02-04T08:52:57.164Z,3.40
2019-02-04T08:55:26.552Z,3.40
2019-02-04T08:57:56.132Z,3.40
2019-02-04T09:00:26.248Z,3.40
2019-02-04T09:02:55.717Z,3.40
2019-02-04T09:05:25.241Z,3.50
2019-02-04T09:07:54.632Z,3.50
2019-02-04T09:10:30.371Z,3.60
2019-02-04T09:13:00.088Z,3.60
2019-02-04T09:15:29.530Z,3.60
2019-02-04T09:17:59.731Z,3.50
2019-02-04T09:20:29.120Z,3.50
2019-02-04T09:22:58.734Z,3.50
2019-02-04T09:25:28.231Z,3.40
2019-02-04T09:27:57.825Z,3.50
2019-02-04T09:30:27.777Z,3.60
2019-02-04T09:32:58.023Z,3.50
2019-02-04T09:35:27.743Z,3.60
2019-02-04T09:37:57.225Z,3.60
2019-02-04T09:40:45.883Z,3.60
2019-02-04T09:43:15.277Z,3.60
2019-02-04T09:45:45.367Z,3.70
2019-02-04T09:48:18.226Z,3.70
2019-02-04T09:50:49.200Z,3.70
2019-02-04T09:53:18.578Z,3.70
2019-02-04T09:55:47.956Z,3.80
2019-02-04T09:58:17.366Z,3.90
2019-02-04T10:00:46.747Z,3.80
2019-02-04T10:03:16.508Z,3.80
2019-02-04T10:05:46.211Z,3.70
2019-02-04T10:08:15.609Z,3.70
2019-02-04T10:10:45.001Z,3.90
2019-02-04T10:13:14.407Z,4.00
2019-02-04T10:15:45.869Z,4.20
2019-02-04T10:18:14.851Z,4.30
2019-02-04T10:20:45.262Z,4.40
2019-02-04T10:23:14.756Z,4.50
2019-02-04T10:25:44.453Z,4.60
2019-02-04T10:28:14.523Z,4.70
2019-02-04T10:30:44.079Z,4.80
2019-02-04T10:33:13.753Z,4.80
2019-02-04T10:35:43.359Z,4.80
2019-02-04T10:38:12.747Z,4.70
2019-02-04T10:40:42.173Z,4.80
2019-02-04T10:43:11.521Z,4.80
2019-02-04T10:45:40.947Z,4.90
2019-02-04T10:48:10.661Z,5.00
2019-02-04T10:50:46.146Z,5.00
2019-02-04T10:53:11.874Z,5.10
2019-02-04T10:55:41.219Z,5.10
2019-02-04T10:58:12.061Z,5.20
2019-02-04T11:00:41.753Z,5.30
2019-02-04T11:03:11.215Z,5.30
2019-02-04T11:05:40.747Z,5.30
2019-02-04T11:08:10.992Z,5.30
2019-02-04T11:10:40.827Z,5.30
2019-02-04T11:13:12.057Z,5.30
2019-02-04T11:15:42.174Z,5.30
2019-02-04T11:18:11.934Z,5.40
2019-02-04T11:20:41.739Z,5.50
2019-02-04T11:23:11.530Z,5.50
2019-02-04T11:25:40.996Z,5.60
2019-02-04T11:28:11.878Z,5.70
2019-02-04T11:30:53.036Z,5.80
2019-02-04T11:33:22.543Z,5.80
2019-02-04T11:35:52.053Z,5.80
2019-02-04T11:38:21.456Z,5.70
2019-02-04T11:40:51.112Z,5.70
2019-02-04T11:43:20.528Z,5.80
2019-02-04T11:45:49.958Z,5.80
2019-02-04T11:48:19.584Z,5.80
2019-02-04T11:50:49.248Z,5.80
2019-02-04T11:53:18.635Z,5.90
2019-02-04T11:55:48.221Z,5.90
2019-02-04T11:58:17.711Z,6.00
2019-02-04T12:00:47.474Z,6.00
2019-02-04T12:03:17.252Z,5.90
2019-02-04T12:05:46.653Z,5.90
2019-02-04T12:08:17.818Z,5.90
2019-02-04T12:10:59.947Z,5.90
2019-02-04T12:13:29.334Z,5.80
2019-02-04T12:16:00.216Z,5.90
2019-02-04T12:18:29.597Z,5.90
2019-02-04T12:20:58.977Z,5.90
2019-02-04T12:23:28.382Z,5.90
2019-02-04T12:25:57.747Z,5.90
2019-02-04T12:28:27.157Z,5.80
2019-02-04T12:30:56.680Z,5.80
2019-02-04T12:33:26.088Z,5.80
2019-02-04T12:35:55.773Z,5.80
2019-02-04T12:38:25.141Z,5.80
2019-02-04T12:40:54.539Z,5.80
2019-02-04T12:43:23.921Z,5.90
2019-02-04T12:45:53.435Z,5.90
2019-02-04T12:48:23.470Z,5.80
2019-02-04T12:50:53.255Z,5.70
2019-02-04T12:53:22.647Z,5.70
2019-02-04T12:55:52.032Z,5.60
2019-02-04T12:58:21.429Z,5.60
2019-02-04T13:00:50.795Z,5.70
2019-02-04T13:03:20.227Z,5.70
2019-02-04T13:05:52.191Z,5.60
2019-02-04T13:08:21.835Z,5.60
2019-02-04T13:10:51.215Z,5.50
2019-02-04T13:13:22.415Z,5.40
2019-02-04T13:15:51.843Z,5.40
2019-02-04T13:18:21.442Z,5.40
2019-02-04T13:20:50.859Z,5.40
2019-02-04T13:23:20.241Z,5.40
2019-02-04T13:25:49.695Z,5.30
2019-02-04T13:28:22.900Z,5.20
2019-02-04T13:30:52.327Z,5.10
2019-02-04T13:33:21.950Z,5.00
2019-02-04T13:35:51.349Z,5.00
2019-02-04T13:38:20.748Z,5.00
2019-02-04T13:40:50.135Z,5.00
2019-02-04T13:43:19.652Z,5.00
2019-02-04T13:45:49.063Z,5.10
2019-02-04T13:48:18.575Z,5.10
2019-02-04T13:50:47.996Z,5.10
2019-02-04T13:53:17.445Z,5.00
2019-02-04T13:55:47.844Z,4.90
2019-02-04T13:58:17.387Z,4.90
2019-02-04T14:00:47.191Z,4.80
2019-02-04T14:03:17.730Z,4.80
2019-02-04T14:05:47.521Z,4.80
2019-02-04T14:08:16.962Z,4.80
2019-02-04T14:10:46.426Z,4.80
2019-02-04T14:13:15.969Z,4.70
2019-02-04T14:15:45.757Z,4.60
2019-02-04T14:18:15.227Z,4.50
2019-02-04T14:20:44.738Z,4.40
2019-02-04T14:23:14.220Z,4.40
2019-02-04T14:25:43.667Z,4.40
2019-02-04T14:28:13.424Z,4.40
2019-02-04T14:30:42.888Z,4.40
2019-02-04T14:33:12.357Z,4.40
2019-02-04T14:35:41.975Z,4.40
2019-02-04T14:38:11.456Z,4.30
2019-02-04T14:40:41.352Z,4.10
2019-02-04T14:43:24.539Z,4.00
2019-02-04T14:46:18.647Z,4.00
2019-02-04T14:49:23.947Z,4.00
2019-02-04T14:52:26.263Z,4.00
2019-02-04T14:55:22.260Z,4.00
2019-02-04T14:58:22.602Z,4.00
2019-02-04T15:01:39.715Z,4.00
2019-02-04T15:04:40.362Z,4.00
2019-02-04T15:07:41.948Z,4.00
2019-02-04T15:10:39.645Z,3.90
2019-02-04T15:13:44.663Z,3.90
2019-02-04T15:16:42.221Z,4.00
2019-02-04T15:19:47.155Z,4.00
2019-02-04T15:22:48.217Z,4.00
2019-02-04T15:25:59.034Z,3.90
2019-02-04T15:28:51.155Z,3.90
2019-02-04T15:32:04.627Z,3.90
2019-02-04T15:35:22.042Z,3.90
2019-02-04T15:38:23.620Z,3.80
2019-02-04T15:41:14.746Z,3.70
2019-02-04T15:44:10.005Z,3.70
2019-02-04T15:47:35.288Z,3.70
2019-02-04T15:50:46.776Z,3.70
2019-02-04T15:53:16.239Z,3.70
2019-02-04T15:55:45.708Z,3.70
2019-02-04T15:58:15.307Z,3.70
2019-02-04T16:00:45.027Z,3.70
2019-02-04T16:03:14.533Z,3.60
2019-02-04T16:05:44.043Z,3.60
2019-02-04T16:08:13.516Z,3.50
2019-02-04T16:10:42.990Z,3.50
2019-02-04T16:13:12.455Z,3.40
2019-02-04T16:15:42.584Z,3.30
2019-02-04T16:18:12.082Z,3.20
2019-02-04T16:20:41.579Z,3.10
2019-02-04T16:23:11.036Z,3.00
2019-02-04T16:25:40.735Z,3.00
2019-02-04T16:28:10.198Z,2.90
2019-02-04T16:30:39.872Z,2.80
2019-02-04T16:33:09.356Z,2.80
2019-02-04T16:35:38.749Z,2.80
2019-02-04T16:38:08.256Z,2.70
2019-02-04T16:40:37.631Z,2.70
2019-02-04T16:43:07.015Z,2.60
2019-02-04T16:45:36.531Z,2.60
2019-02-04T16:48:06.082Z,2.60
2019-02-04T16:50:35.495Z,2.50
2019-02-04T16:53:10.651Z,2.50
2019-02-04T16:55:36.239Z,2.50
2019-02-04T16:58:05.615Z,2.40
2019-02-04T17:00:35.036Z,2.40
2019-02-04T17:03:04.487Z,2.40
2019-02-04T17:05:33.904Z,2.30
2019-02-04T17:08:03.511Z,2.30
2019-02-04T17:10:32.902Z,2.30
2019-02-04T17:13:02.523Z,2.30
2019-02-04T17:15:31.916Z,2.20
2019-02-04T17:18:01.313Z,2.20
2019-02-04T17:20:32.668Z,2.10
2019-02-04T17:23:02.379Z,2.10
2019-02-04T17:25:31.761Z,2.10
2019-02-04T17:28:01.532Z,2.00
2019-02-04T17:30:31.053Z,2.00
2019-02-04T17:33:00.500Z,1.90
2019-02-04T17:35:29.876Z,1.90
2019-02-04T17:37:59.298Z,1.90
2019-02-04T17:40:28.979Z,1.80
2019-02-04T17:42:58.703Z,1.70
2019-02-04T17:45:28.129Z,1.70
2019-02-04T17:47:57.586Z,1.60
2019-02-04T17:50:26.978Z,1.50
2019-02-04T17:52:56.795Z,1.50
2019-02-04T17:55:26.477Z,1.40
2019-02-04T17:57:56.207Z,1.30
2019-02-04T18:00:38.487Z,1.20
2019-02-04T18:03:08.237Z,1.20
2019-02-04T18:05:37.761Z,1.20
2019-02-04T18:08:07.649Z,1.20
2019-02-04T18:10:37.056Z,1.30
2019-02-04T18:13:06.664Z,1.30
2019-02-04T18:15:36.007Z,1.30
2019-02-04T18:18:05.701Z,1.30
2019-02-04T18:20:35.096Z,1.30
2019-02-04T18:23:06.608Z,1.30
2019-02-04T18:25:35.996Z,1.30
2019-02-04T18:28:05.539Z,1.30
2019-02-04T18:30:35.244Z,1.30
2019-02-04T18:33:04.813Z,1.30
2019-02-04T18:35:34.637Z,1.20
2019-02-04T18:38:04.044Z,1.20
2019-02-04T18:40:33.407Z,1.20
2019-02-04T18:43:02.827Z,1.20
2019-02-04T18:45:32.586Z,1.20
2019-02-04T18:48:02.004Z,1.10
2019-02-04T18:50:31.836Z,1.00
2019-02-04T18:53:01.246Z,1.00
2019-02-04T18:55:32.177Z,1.00
2019-02-04T18:58:02.066Z,1.00
2019-02-04T19:00:31.917Z,1.00
2019-02-04T19:03:02.447Z,0.90
2019-02-04T19:05:32.111Z,0.90
2019-02-04T19:08:01.552Z,0.80
2019-02-04T19:10:31.080Z,0.70
2019-02-04T19:13:00.468Z,0.70
2019-02-04T19:15:30.061Z,0.70
2019-02-04T19:18:02.735Z,0.70
2019-02-04T19:20:32.111Z,0.80
2019-02-04T19:23:01.511Z,0.90
2019-02-04T19:25:30.900Z,1.10
2019-02-04T19:28:00.315Z,1.20
2019-02-04T19:30:38.528Z,1.40
2019-02-04T19:33:07.928Z,1.50
2019-02-04T19:35:37.347Z,1.50
2019-02-04T19:38:06.835Z,1.60
2019-02-04T19:40:36.228Z,1.60
2019-02-04T19:43:05.709Z,1.60
2019-02-04T19:45:35.425Z,1.60
2019-02-04T19:48:04.917Z,1.60
2019-02-04T19:50:34.387Z,1.60
2019-02-04T19:53:03.955Z,1.70
2019-02-04T19:55:33.334Z,1.70
2019-02-04T19:58:02.850Z,1.70
2019-02-04T20:00:32.532Z,1.80
2019-02-04T20:03:01.962Z,1.80
2019-02-04T20:05:31.480Z,1.80
2019-02-04T20:08:00.907Z,1.90
2019-02-04T20:10:32.253Z,2.00
2019-02-04T20:13:01.768Z,2.10
2019-02-04T20:15:31.275Z,2.10
2019-02-04T20:18:00.961Z,2.10
2019-02-04T20:20:30.780Z,2.20
2019-02-04T20:23:00.187Z,2.20
2019-02-04T20:25:30.535Z,2.30
2019-02-04T20:28:00.083Z,2.30
2019-02-04T20:30:45.120Z,2.30
2019-02-04T20:33:05.964Z,2.30
2019-02-04T20:35:35.376Z,2.20
2019-02-04T20:38:04.911Z,2.20
2019-02-04T20:40:34.299Z,2.20
2019-02-04T20:43:04.209Z,2.20
2019-02-04T20:45:33.591Z,2.30
2019-02-04T20:48:03.179Z,2.30
2019-02-04T20:50:34.987Z,2.20
2019-02-04T20:53:04.475Z,2.20
2019-02-04T20:55:33.931Z,2.20
2019-02-04T20:58:03.607Z,2.30
2019-02-04T21:00:33.132Z,2.20
2019-02-04T21:03:02.513Z,2.20
2019-02-04T21:05:31.888Z,2.20
2019-02-04T21:08:01.313Z,2.20
2019-02-04T21:10:30.736Z,2.20
2019-02-04T21:13:00.145Z,2.20
2019-02-04T21:15:29.547Z,2.20
2019-02-04T21:17:58.969Z,2.20
2019-02-04T21:20:28.382Z,2.20
2019-02-04T21:22:57.895Z,2.20
2019-02-04T21:25:27.311Z,2.10
2019-02-04T21:27:57.907Z,2.10
2019-02-04T21:30:38.480Z,2.10
2019-02-04T21:33:07.895Z,2.10
2019-02-04T21:35:37.555Z,2.10
2019-02-04T21:38:07.031Z,2.10
2019-02-04T21:40:36.423Z,2.10
2019-02-04T21:43:05.921Z,2.10
2019-02-04T21:45:35.426Z,2.10
2019-02-04T21:48:05.334Z,2.10
2019-02-04T21:50:34.711Z,2.00
2019-02-04T21:53:04.260Z,2.00
2019-02-04T21:55:33.639Z,2.00
2019-02-04T21:58:03.028Z,2.00
2019-02-04T22:00:34.792Z,1.90
2019-02-04T22:03:04.400Z,1.90
2019-02-04T22:05:34.638Z,1.90
2019-02-04T22:08:04.531Z,1.80
2019-02-04T22:10:33.897Z,1.80
2019-02-04T22:13:03.319Z,1.80
2019-02-04T22:15:32.839Z,1.80
2019-02-04T22:18:02.226Z,1.80
2019-02-04T22:20:31.617Z,1.80
2019-02-04T22:23:01.081Z,1.90
2019-02-04T22:25:30.466Z,1.90
2019-02-04T22:27:59.964Z,1.90
2019-02-04T22:30:30.239Z,1.80
2019-02-04T22:32:59.616Z,1.90
2019-02-04T22:35:29.024Z,1.90
2019-02-04T22:37:58.807Z,2.00
2019-02-04T22:40:29.875Z,2.00
2019-02-04T22:43:00.144Z,1.90
2019-02-04T22:45:29.549Z,2.00
2019-02-04T22:47:58.995Z,2.00
2019-02-04T22:50:30.184Z,2.00
2019-02-04T22:53:02.306Z,2.00
2019-02-04T22:55:32.495Z,2.00
2019-02-04T22:58:02.223Z,2.00
2019-02-04T23:01:20.420Z,2.00
2019-02-04T23:03:49.851Z,2.00
2019-02-04T23:06:19.280Z,1.90
2019-02-04T23:08:48.663Z,1.90
2019-02-04T23:11:18.446Z,1.90
2019-02-04T23:13:47.851Z,1.80
2019-02-04T23:16:17.243Z,1.80
2019-02-04T23:18:46.656Z,1.70
2019-02-04T23:21:16.036Z,1.70
2019-02-04T23:23:45.439Z,1.60
2019-02-04T23:26:14.914Z,1.60
2019-02-04T23:28:44.300Z,1.60
2019-02-04T23:31:13.687Z,1.70
2019-02-04T23:33:43.123Z,1.70
2019-02-04T23:36:12.616Z,1.70
2019-02-04T23:38:42.035Z,1.70
2019-02-04T23:41:11.439Z,1.70
2019-02-04T23:43:40.831Z,1.80
2019-02-04T23:46:10.275Z,1.70
2019-02-04T23:48:39.815Z,1.60
2019-02-04T23:51:09.226Z,1.70
2019-02-04T23:53:38.596Z,1.70
2019-02-04T23:56:08.031Z,1.70
2019-02-04T23:58:37.404Z,1.80
